Time;durP1;ratioP1;P1;durP2;ratioP2;P2;SDS_P1;SDS_P2;PMS_P1;PMS_P2;Temp;Humidity;BMP_temperature;BMP_pressure;BME280_temperature;BME280_humidity;BME280_pressure;Samples;Min_cycle;Max_cycle;Signal;HPM_P1;HPM_P2
2022/07/08 03:03:03;;;;;;;0.80;0.70;;;16.10;70.40;;;;;;4916726;29;20503;-68
2022/07/08 03:05:29;;;;;;;0.80;0.70;;;16.10;70.50;;;;;;4918881;29;20448;-68
2022/07/08 03:07:56;;;;;;;0.80;0.70;;;16.10;70.70;;;;;;4918877;29;20952;-68
2022/07/08 03:10:23;;;;;;;0.90;0.80;;;16.10;70.60;;;;;;4918049;29;20486;-68
2022/07/08 03:12:50;;;;;;;0.90;0.80;;;16.10;70.70;;;;;;4917474;29;20948;-68
2022/07/08 03:15:16;;;;;;;1.00;0.90;;;16.10;70.50;;;;;;4918973;29;20935;-69
2022/07/08 03:17:43;;;;;;;0.90;0.70;;;16.10;70.60;;;;;;4917529;29;20448;-69
2022/07/08 03:20:11;;;;;;;0.80;0.77;;;16.10;70.80;;;;;;4917523;29;20798;-69
2022/07/08 03:22:38;;;;;;;1.00;0.80;;;16.00;70.90;;;;;;4917485;29;20527;-69
2022/07/08 03:25:05;;;;;;;1.00;0.90;;;16.00;71.00;;;;;;4917500;29;20453;-69
2022/07/08 03:27:32;;;;;;;0.70;0.70;;;16.00;70.80;;;;;;4917230;29;20964;-68
2022/07/08 03:29:58;;;;;;;0.90;0.77;;;16.00;70.80;;;;;;4917466;29;20504;-68
2022/07/08 03:32:26;;;;;;;0.80;0.80;;;16.00;71.20;;;;;;4917368;29;20504;-68
2022/07/08 03:34:52;;;;;;;0.70;0.60;;;16.10;70.80;;;;;;4917356;29;20503;-68
2022/07/08 03:37:20;;;;;;;1.10;0.80;;;16.20;70.40;;;;;;4917323;29;20507;-68
2022/07/08 03:39:48;;;;;;;1.00;0.70;;;16.20;70.20;;;;;;4917244;29;20488;-68
2022/07/08 03:42:13;;;;;;;0.80;0.70;;;16.20;70.40;;;;;;4916844;29;20515;-69
2022/07/08 03:44:40;;;;;;;1.10;1.00;;;16.30;70.30;;;;;;4917523;29;20472;-68
2022/07/08 03:47:07;;;;;;;0.90;0.70;;;16.30;69.80;;;;;;4917252;29;20288;-69
2022/07/08 03:49:33;;;;;;;0.70;0.60;;;16.40;69.90;;;;;;4917234;29;20496;-68
2022/07/08 03:52:00;;;;;;;1.73;0.90;;;16.40;69.70;;;;;;4917141;29;20477;-68
2022/07/08 03:54:29;;;;;;;0.90;0.70;;;16.50;69.40;;;;;;4916831;29;21031;-68
2022/07/08 03:56:55;;;;;;;0.80;0.80;;;16.50;69.20;;;;;;4917176;29;20449;-68
2022/07/08 03:59:22;;;;;;;0.90;0.80;;;16.50;69.30;;;;;;4916728;29;21003;-68
2022/07/08 04:01:48;;;;;;;0.90;0.70;;;16.50;69.30;;;;;;4916830;29;20480;-69
2022/07/08 04:04:15;;;;;;;0.87;0.80;;;16.60;69.10;;;;;;4917109;29;20453;-68
2022/07/08 04:06:42;;;;;;;0.77;0.63;;;16.60;69.20;;;;;;4917099;29;20453;-68
2022/07/08 04:09:08;;;;;;;0.80;0.70;;;16.70;69.00;;;;;;4917054;29;20857;-68
2022/07/08 04:11:37;;;;;;;0.90;0.77;;;16.80;68.60;;;;;;4916681;29;20988;-68
2022/07/08 04:14:04;;;;;;;0.90;0.60;;;16.80;68.70;;;;;;4917159;29;20456;-68
2022/07/08 04:16:30;;;;;;;0.80;0.60;;;16.90;68.50;;;;;;4916977;29;20457;-68
2022/07/08 04:18:57;;;;;;;0.80;0.70;;;16.90;68.30;;;;;;4916900;29;20547;-68
2022/07/08 04:21:24;;;;;;;0.80;0.80;;;17.00;68.20;;;;;;4916885;29;20569;-68
2022/07/08 04:23:51;;;;;;;0.80;0.80;;;17.00;68.10;;;;;;4916947;29;20870;-69
2022/07/08 04:26:18;;;;;;;0.73;0.60;;;17.10;68.10;;;;;;4916594;29;20467;-68
2022/07/08 04:28:46;;;;;;;0.70;0.70;;;17.10;68.00;;;;;;4916872;29;20445;-68
2022/07/08 04:31:12;;;;;;;0.83;0.80;;;17.20;67.70;;;;;;4916772;29;20473;-68
2022/07/08 04:33:39;;;;;;;0.93;0.93;;;17.20;67.60;;;;;;4916839;29;20500;-68
2022/07/08 04:36:07;;;;;;;0.80;0.70;;;17.20;67.40;;;;;;4916837;29;20484;-68
2022/07/08 04:38:33;;;;;;;0.90;0.80;;;17.20;67.40;;;;;;4916694;29;20899;-68
2022/07/08 04:41:00;;;;;;;1.40;1.10;;;17.20;67.30;;;;;;4916431;29;20988;-68
2022/07/08 04:43:27;;;;;;;1.13;1.00;;;17.30;67.70;;;;;;4916843;29;20453;-68
2022/07/08 04:45:55;;;;;;;0.70;0.60;;;17.40;67.40;;;;;;4916778;29;20485;-68
2022/07/08 04:48:21;;;;;;;1.00;0.70;;;17.40;67.50;;;;;;4916718;29;20452;-68
2022/07/08 04:50:48;;;;;;;0.90;0.90;;;17.40;66.80;;;;;;4916335;29;20885;-68
2022/07/08 04:53:15;;;;;;;0.70;0.70;;;17.40;67.40;;;;;;4916433;29;20449;-68
2022/07/08 04:55:42;;;;;;;0.80;0.77;;;17.40;67.20;;;;;;4918867;29;20554;-67
2022/07/08 04:58:08;;;;;;;0.80;0.70;;;17.50;67.10;;;;;;4919704;29;20875;-68
2022/07/08 05:00:35;;;;;;;0.80;0.77;;;17.60;66.80;;;;;;4920090;29;20457;-69
2022/07/08 05:03:03;;;;;;;1.20;0.70;;;17.60;66.90;;;;;;4920000;29;20531;-69
2022/07/08 05:05:30;;;;;;;0.80;0.80;;;17.70;66.50;;;;;;4919965;29;20449;-69
2022/07/08 05:07:57;;;;;;;0.90;0.70;;;17.70;66.20;;;;;;4919941;29;20452;-69
2022/07/08 05:10:24;;;;;;;1.07;0.70;;;17.70;66.40;;;;;;4919760;29;20456;-69
2022/07/08 05:12:51;;;;;;;0.83;0.70;;;17.80;66.00;;;;;;4919817;29;20459;-69
2022/07/08 05:15:19;;;;;;;2.43;1.10;;;17.90;66.40;;;;;;4919468;29;20971;-70
2022/07/08 05:17:46;;;;;;;0.90;0.80;;;18.10;66.00;;;;;;4919707;29;20866;-69
2022/07/08 05:20:14;;;;;;;1.43;0.80;;;18.20;65.40;;;;;;4919579;29;20491;-69
2022/07/08 05:22:41;;;;;;;1.50;0.80;;;18.20;64.60;;;;;;4919632;29;20476;-71
2022/07/08 05:25:09;;;;;;;0.70;0.70;;;18.30;65.10;;;;;;4919702;29;20534;-69
2022/07/08 05:27:36;;;;;;;0.70;0.70;;;18.40;63.60;;;;;;4919654;29;20453;-69
2022/07/08 05:30:04;;;;;;;0.90;0.70;;;18.40;64.00;;;;;;4919582;29;20794;-69
2022/07/08 05:32:30;;;;;;;0.70;0.60;;;18.40;63.90;;;;;;4919502;29;20479;-69
2022/07/08 05:34:57;;;;;;;0.90;0.70;;;18.40;64.40;;;;;;4919570;29;20453;-69
2022/07/08 05:37:25;;;;;;;0.80;0.73;;;18.50;63.90;;;;;;4919187;29;21019;-69
2022/07/08 05:39:52;;;;;;;0.97;0.87;;;18.60;63.50;;;;;;4919275;29;20480;-69
2022/07/08 05:42:18;;;;;;;0.70;0.70;;;18.60;63.30;;;;;;4919234;29;20472;-68
2022/07/08 05:44:46;;;;;;;1.23;0.70;;;18.60;64.70;;;;;;4919258;29;20863;-68
2022/07/08 05:47:13;;;;;;;1.40;0.70;;;18.70;64.30;;;;;;4919157;29;20453;-69
2022/07/08 05:49:43;;;;;;;0.73;0.67;;;18.80;62.90;;;;;;4919104;29;20459;-69
2022/07/08 05:52:10;;;;;;;0.90;0.70;;;18.90;62.50;;;;;;4918974;29;20524;-69
2022/07/08 05:54:38;;;;;;;0.70;0.60;;;18.90;62.70;;;;;;4919244;29;20452;-68
2022/07/08 05:57:05;;;;;;;2.20;0.80;;;19.00;62.90;;;;;;4919008;29;20871;-68
2022/07/08 05:59:32;;;;;;;1.13;0.80;;;18.80;62.90;;;;;;4918834;29;20550;-68
2022/07/08 06:01:58;;;;;;;0.80;0.80;;;19.00;62.70;;;;;;4918673;29;20503;-68
2022/07/08 06:04:25;;;;;;;1.13;0.90;;;19.10;62.20;;;;;;4918554;29;20457;-68
2022/07/08 06:06:52;;;;;;;0.70;0.70;;;19.30;61.90;;;;;;4918667;29;20484;-68
2022/07/08 06:09:18;;;;;;;0.90;0.80;;;19.50;61.70;;;;;;4918566;29;20453;-68
2022/07/08 06:11:46;;;;;;;0.80;0.70;;;19.70;61.40;;;;;;4918687;29;20473;-68
2022/07/08 06:14:13;;;;;;;1.10;0.80;;;19.90;60.90;;;;;;4918702;29;20516;-71
2022/07/08 06:16:40;;;;;;;0.90;0.70;;;19.90;60.60;;;;;;4918382;29;20805;-70
2022/07/08 06:19:06;;;;;;;0.70;0.60;;;19.70;60.30;;;;;;4918461;29;20484;-70
2022/07/08 06:21:33;;;;;;;0.80;0.70;;;19.20;60.00;;;;;;4918523;29;20476;-70
2022/07/08 06:24:01;;;;;;;0.70;0.60;;;19.20;61.60;;;;;;4918448;29;20452;-70
2022/07/08 06:26:28;;;;;;;0.70;0.60;;;19.40;62.60;;;;;;4918421;29;20453;-70
2022/07/08 06:28:56;;;;;;;0.80;0.80;;;19.60;61.60;;;;;;4918430;29;20509;-70
2022/07/08 06:31:23;;;;;;;0.70;0.60;;;19.70;60.60;;;;;;4918266;29;20476;-71
2022/07/08 06:33:56;;;;;;;0.70;0.60;;;19.80;59.20;;;;;;4918176;29;20452;-70
2022/07/08 06:36:23;;;;;;;0.73;0.73;;;19.40;62.00;;;;;;4918196;29;20450;-70
2022/07/08 06:38:49;;;;;;;0.77;0.60;;;19.50;60.70;;;;;;4918336;29;20492;-70
2022/07/08 06:41:16;;;;;;;0.80;0.70;;;19.70;61.30;;;;;;4917987;29;21067;-70
2022/07/08 06:43:42;;;;;;;0.80;0.77;;;19.60;61.30;;;;;;4918433;29;20460;-70
2022/07/08 06:46:10;;;;;;;0.70;0.60;;;19.70;61.10;;;;;;4918503;29;20460;-70
2022/07/08 06:48:37;;;;;;;0.70;0.60;;;19.60;60.40;;;;;;4918342;29;20504;-70
2022/07/08 06:51:04;;;;;;;0.70;0.70;;;19.40;61.30;;;;;;4918264;29;20465;-70
2022/07/08 06:54:34;;;;;;;0.80;0.63;;;19.50;60.30;;;;;;4918369;29;20520;-71
2022/07/08 06:56:18;;;;;;;0.70;0.67;;;19.70;58.30;;;;;;4917857;29;20451;-71
2022/07/08 06:58:44;;;;;;;0.70;0.70;;;19.60;59.60;;;;;;4918357;29;20448;-71
2022/07/08 07:01:12;;;;;;;0.80;0.80;;;19.20;61.50;;;;;;4917992;29;20543;-70
2022/07/08 07:03:40;;;;;;;1.10;0.70;;;19.20;61.60;;;;;;4917970;29;20508;-69
2022/07/08 07:06:07;;;;;;;0.70;0.60;;;19.00;62.20;;;;;;4917923;29;20543;-70
2022/07/08 07:08:34;;;;;;;0.80;0.60;;;19.20;60.00;;;;;;4917395;29;20890;-69
2022/07/08 07:11:00;;;;;;;0.90;0.70;;;19.10;61.80;;;;;;4917635;29;20476;-70
2022/07/08 07:13:27;;;;;;;0.70;0.60;;;19.00;61.90;;;;;;4918449;29;20457;-70
2022/07/08 07:15:54;;;;;;;0.80;0.70;;;19.40;61.10;;;;;;4917641;29;20445;-70
2022/07/08 07:18:22;;;;;;;0.80;0.70;;;19.60;61.10;;;;;;4917149;29;20516;-70
2022/07/08 07:20:48;;;;;;;0.70;0.70;;;19.60;60.40;;;;;;4917478;29;20493;-70
2022/07/08 07:23:15;;;;;;;0.83;0.70;;;19.60;59.80;;;;;;4917214;29;21003;-69
2022/07/08 07:25:42;;;;;;;0.70;0.63;;;19.80;59.70;;;;;;4917515;29;20453;-70
2022/07/08 07:28:08;;;;;;;0.97;0.70;;;19.80;59.80;;;;;;4917439;29;20456;-70
2022/07/08 07:30:35;;;;;;;0.90;0.90;;;19.50;59.90;;;;;;4917337;29;20445;-70
2022/07/08 07:33:02;;;;;;;0.80;0.60;;;19.30;60.70;;;;;;4917050;29;20459;-69
2022/07/08 07:35:30;;;;;;;1.67;0.70;;;19.50;60.30;;;;;;4917398;29;20457;-70
2022/07/08 07:37:56;;;;;;;0.70;0.60;;;19.70;59.40;;;;;;4917332;29;20520;-69
2022/07/08 07:40:23;;;;;;;0.70;0.60;;;19.80;58.70;;;;;;4916914;29;20480;-70
2022/07/08 07:42:50;;;;;;;1.20;0.80;;;20.00;57.30;;;;;;4917329;29;20512;-71
2022/07/08 07:45:16;;;;;;;0.90;0.80;;;20.20;57.10;;;;;;4917282;29;20504;-70
2022/07/08 07:47:43;;;;;;;0.80;0.70;;;20.20;55.20;;;;;;4917231;29;20444;-70
2022/07/08 07:50:12;;;;;;;0.80;0.70;;;20.40;55.40;;;;;;4916932;29;20948;-70
2022/07/08 07:52:40;;;;;;;0.80;0.70;;;20.10;56.90;;;;;;4917148;29;20480;-69
2022/07/08 07:55:08;;;;;;;0.83;0.70;;;19.50;56.30;;;;;;4917608;29;20459;-70
2022/07/08 07:57:36;;;;;;;0.80;0.70;;;18.90;57.90;;;;;;4917148;29;20809;-70
2022/07/08 08:00:04;;;;;;;0.70;0.60;;;19.20;58.90;;;;;;4916972;29;20583;-70
2022/07/08 08:02:30;;;;;;;0.80;0.60;;;19.60;58.60;;;;;;4916732;29;20501;-70
2022/07/08 08:04:57;;;;;;;0.70;0.60;;;20.10;58.30;;;;;;4917200;29;20878;-70
2022/07/08 08:07:24;;;;;;;0.70;0.60;;;20.20;57.30;;;;;;4916737;29;20995;-71
2022/07/08 08:09:51;;;;;;;0.80;0.70;;;20.30;57.00;;;;;;4916698;29;20949;-70
2022/07/08 08:12:18;;;;;;;0.70;0.60;;;20.00;56.60;;;;;;4916972;29;20468;-70
2022/07/08 08:14:45;;;;;;;0.97;0.70;;;19.80;55.70;;;;;;4916701;29;20941;-70
2022/07/08 08:17:11;;;;;;;0.80;0.70;;;19.90;56.00;;;;;;4916668;29;20968;-70
2022/07/08 08:19:38;;;;;;;0.70;0.60;;;20.10;55.30;;;;;;4916868;29;20536;-70
2022/07/08 08:22:05;;;;;;;0.70;0.60;;;20.10;54.90;;;;;;4916877;29;20500;-70
2022/07/08 08:24:32;;;;;;;0.80;0.60;;;20.10;54.80;;;;;;4916629;29;20873;-71
2022/07/08 08:27:00;;;;;;;0.80;0.70;;;20.20;54.90;;;;;;4916871;29;20449;-71
2022/07/08 08:29:26;;;;;;;0.90;0.70;;;20.20;54.50;;;;;;4917301;29;20507;-70
2022/07/08 08:31:53;;;;;;;0.70;0.60;;;20.30;54.50;;;;;;4920412;29;20519;-70
2022/07/08 08:34:19;;;;;;;1.10;0.70;;;20.30;53.80;;;;;;4920491;29;20507;-70
2022/07/08 08:36:46;;;;;;;0.70;0.50;;;20.40;54.80;;;;;;4920489;29;20516;-70
2022/07/08 08:39:13;;;;;;;0.70;0.60;;;20.70;54.30;;;;;;4920360;29;20870;-71
2022/07/08 08:41:41;;;;;;;0.83;0.83;;;20.90;53.80;;;;;;4920260;29;20551;-70
2022/07/08 08:44:10;;;;;;;0.70;0.60;;;21.10;52.60;;;;;;4920368;29;20452;-70
2022/07/08 08:46:37;;;;;;;0.70;0.70;;;21.20;53.60;;;;;;4920294;29;20860;-70
2022/07/08 08:49:04;;;;;;;0.87;0.60;;;21.30;54.20;;;;;;4920213;29;20513;-70
2022/07/08 08:51:32;;;;;;;0.73;0.60;;;21.60;52.70;;;;;;4919879;29;21043;-70
2022/07/08 08:54:00;;;;;;;0.70;0.60;;;21.80;53.90;;;;;;4920505;29;20511;-71
2022/07/08 08:56:27;;;;;;;0.80;0.70;;;22.00;51.70;;;;;;4920163;29;20504;-71
2022/07/08 08:58:54;;;;;;;0.80;0.60;;;22.30;51.40;;;;;;4919802;29;20802;-70
2022/07/08 09:01:23;;;;;;;2.43;0.67;;;22.20;53.20;;;;;;4919570;29;21012;-70
2022/07/08 09:03:50;;;;;;;0.70;0.50;;;22.10;53.30;;;;;;4920804;29;20452;-70
2022/07/08 09:06:16;;;;;;;1.00;0.70;;;22.10;53.20;;;;;;4919962;29;20504;-70
2022/07/08 09:08:43;;;;;;;0.80;0.60;;;21.90;52.60;;;;;;4919956;29;20452;-69
2022/07/08 09:11:10;;;;;;;0.70;0.60;;;21.60;52.20;;;;;;4920052;29;20483;-70
2022/07/08 09:13:36;;;;;;;0.70;0.60;;;21.40;52.80;;;;;;4919807;29;20452;-70
2022/07/08 09:16:03;;;;;;;0.70;0.60;;;21.70;53.10;;;;;;4921355;29;20512;-70
2022/07/08 09:18:34;;;;;;;0.80;0.60;;;21.70;53.30;;;;;;4919744;29;20452;-71
2022/07/08 09:21:02;;;;;;;0.73;0.60;;;21.50;54.00;;;;;;4919528;29;20492;-70
2022/07/08 09:23:30;;;;;;;0.70;0.50;;;21.30;53.10;;;;;;4919632;29;20448;-71
2022/07/08 09:25:58;;;;;;;0.90;0.63;;;21.60;53.10;;;;;;4919613;29;20448;-70
2022/07/08 09:28:30;;;;;;;0.70;0.70;;;21.70;52.90;;;;;;4919626;29;20456;-71
2022/07/08 09:30:57;;;;;;;0.70;0.63;;;21.50;53.00;;;;;;4919450;29;20473;-71
2022/07/08 09:33:25;;;;;;;0.70;0.60;;;21.50;52.40;;;;;;4919497;29;20456;-71
2022/07/08 09:35:54;;;;;;;0.70;0.60;;;21.80;52.20;;;;;;4919470;29;20457;-71
2022/07/08 09:38:22;;;;;;;0.77;0.60;;;22.00;52.00;;;;;;4919664;29;20488;-70
2022/07/08 09:40:55;;;;;;;1.30;0.67;;;22.00;50.50;;;;;;4918223;29;20853;-71
2022/07/08 09:43:22;;;;;;;0.70;0.60;;;22.30;51.50;;;;;;4919191;29;20536;-71
2022/07/08 09:45:48;;;;;;;0.87;0.80;;;22.40;51.30;;;;;;4919270;29;20543;-71
2022/07/08 09:48:15;;;;;;;1.03;0.67;;;22.50;51.00;;;;;;4919185;29;20448;-72
2022/07/08 09:50:44;;;;;;;0.70;0.50;;;22.50;50.10;;;;;;4919131;29;20448;-72
2022/07/08 09:53:17;;;;;;;0.70;0.60;;;22.70;49.80;;;;;;4919107;29;20848;-72
2022/07/08 09:55:46;;;;;;;0.70;0.60;;;22.60;50.70;;;;;;4918822;29;20932;-72
2022/07/08 09:58:14;;;;;;;0.70;0.60;;;22.70;50.40;;;;;;4919076;29;20453;-72
2022/07/08 10:00:41;;;;;;;0.77;0.60;;;22.80;50.70;;;;;;4918922;29;20484;-72
2022/07/08 10:03:08;;;;;;;0.80;0.67;;;22.90;50.90;;;;;;4919134;29;20473;-72
2022/07/08 10:05:35;;;;;;;0.97;0.60;;;23.10;51.50;;;;;;4919173;29;20460;-72
2022/07/08 10:08:02;;;;;;;0.70;0.70;;;23.00;49.40;;;;;;4918503;29;20453;-71
2022/07/08 10:10:32;;;;;;;0.70;0.57;;;23.20;50.50;;;;;;4918619;29;20501;-72
2022/07/08 10:13:00;;;;;;;0.70;0.60;;;23.20;50.70;;;;;;4918743;29;20457;-72
2022/07/08 10:15:28;;;;;;;0.90;0.53;;;23.40;48.60;;;;;;4918622;29;20453;-72
2022/07/08 10:17:58;;;;;;;0.97;0.60;;;23.40;49.40;;;;;;4918653;29;20489;-73
2022/07/08 10:20:31;;;;;;;0.70;0.60;;;23.20;49.60;;;;;;4918485;29;20477;-72
2022/07/08 10:23:02;;;;;;;0.70;0.60;;;23.30;49.10;;;;;;4918593;29;20476;-73
2022/07/08 10:25:30;;;;;;;0.73;0.60;;;23.30;49.80;;;;;;4918513;29;20496;-72
2022/07/08 10:28:07;;;;;;;0.80;0.70;;;23.10;49.40;;;;;;4918586;29;20469;-73
2022/07/08 10:30:49;;;;;;;0.70;0.60;;;22.70;50.50;;;;;;4918508;29;20531;-73
2022/07/08 10:33:31;;;;;;;0.80;0.63;;;22.50;52.00;;;;;;4918413;29;20455;-73
2022/07/08 10:36:06;;;;;;;0.70;0.50;;;22.50;50.60;;;;;;4918347;29;20493;-72
2022/07/08 10:38:36;;;;;;;0.77;0.70;;;22.70;51.70;;;;;;4918261;29;20448;-72
2022/07/08 10:41:07;;;;;;;0.70;0.57;;;22.90;51.60;;;;;;4918044;29;20492;-73
2022/07/08 10:43:35;;;;;;;0.60;0.50;;;23.20;51.30;;;;;;4918238;29;20436;-73
2022/07/08 10:46:10;;;;;;;0.70;0.67;;;23.30;50.20;;;;;;4917844;29;20953;-73
2022/07/08 10:48:56;;;;;;;0.80;0.60;;;23.40;50.10;;;;;;4917913;29;20932;-73
2022/07/08 10:51:46;;;;;;;0.93;0.60;;;23.40;49.80;;;;;;4917851;29;20848;-72
2022/07/08 10:54:26;;;;;;;0.70;0.60;;;23.60;48.80;;;;;;4917493;29;20437;-72
2022/07/08 10:56:56;;;;;;;0.80;0.70;;;23.70;48.90;;;;;;4917860;29;20466;-72
2022/07/08 10:59:25;;;;;;;0.90;0.70;;;23.60;50.00;;;;;;4917811;29;20542;-72
2022/07/08 11:01:53;;;;;;;0.70;0.60;;;23.50;50.10;;;;;;4917337;29;20485;-73
2022/07/08 11:04:21;;;;;;;0.70;0.50;;;23.20;49.80;;;;;;4917752;29;20453;-72
2022/07/08 11:06:48;;;;;;;0.90;0.60;;;23.40;48.90;;;;;;4917738;29;20540;-72
2022/07/08 11:09:17;;;;;;;0.70;0.50;;;23.40;48.00;;;;;;4917734;29;20452;-72
2022/07/08 11:11:45;;;;;;;0.70;0.60;;;23.50;48.90;;;;;;4917655;29;20552;-72
2022/07/08 11:14:14;;;;;;;0.77;0.60;;;23.50;47.20;;;;;;4917369;29;20820;-73
2022/07/08 11:16:41;;;;;;;0.80;0.70;;;23.50;48.60;;;;;;4917601;29;20509;-72
2022/07/08 11:19:08;;;;;;;1.03;0.90;;;23.20;50.00;;;;;;4917604;29;21007;-72
2022/07/08 11:21:35;;;;;;;0.70;0.50;;;22.90;49.40;;;;;;4917332;29;20499;-72
2022/07/08 11:24:01;;;;;;;0.70;0.60;;;22.90;50.20;;;;;;4917449;29;20512;-72
2022/07/08 11:26:28;;;;;;;0.87;0.63;;;23.20;50.30;;;;;;4917540;29;20890;-71
2022/07/08 11:28:55;;;;;;;1.00;0.70;;;23.40;50.10;;;;;;4917437;29;20464;-72
2022/07/08 11:31:26;;;;;;;0.83;0.60;;;23.70;48.70;;;;;;4917350;29;20543;-72
2022/07/08 11:33:53;;;;;;;0.70;0.60;;;23.90;48.90;;;;;;4917356;29;20452;-73
2022/07/08 11:36:21;;;;;;;0.80;0.60;;;23.80;49.80;;;;;;4917368;29;20504;-70
2022/07/08 11:38:49;;;;;;;1.17;0.60;;;23.90;50.00;;;;;;4917410;29;20452;-69
2022/07/08 11:41:19;;;;;;;0.93;0.60;;;23.90;48.90;;;;;;4917161;29;20500;-73
2022/07/08 11:43:46;;;;;;;0.97;0.70;;;23.70;49.20;;;;;;4917033;29;20944;-74
2022/07/08 11:46:21;;;;;;;0.80;0.60;;;23.80;49.70;;;;;;4917232;29;20456;-73
2022/07/08 11:48:49;;;;;;;0.70;0.60;;;23.80;49.10;;;;;;4917010;29;20913;-73
2022/07/08 11:51:17;;;;;;;0.90;0.80;;;24.00;49.40;;;;;;4917191;29;20471;-71
2022/07/08 11:53:44;;;;;;;0.77;0.60;;;24.10;50.30;;;;;;4917174;29;20456;-73
2022/07/08 11:56:10;;;;;;;0.80;0.60;;;24.20;49.00;;;;;;4917086;29;20452;-72
2022/07/08 11:58:37;;;;;;;1.07;0.60;;;24.30;47.90;;;;;;4917195;29;20453;-72
2022/07/08 12:01:05;;;;;;;0.70;0.60;;;24.30;47.90;;;;;;4916775;29;20505;-72
2022/07/08 12:03:34;;;;;;;0.73;0.70;;;24.40;48.90;;;;;;4917588;29;20511;-72
2022/07/08 12:06:03;;;;;;;0.70;0.60;;;24.50;47.80;;;;;;4921787;29;20478;-72
2022/07/08 12:08:32;;;;;;;0.90;0.63;;;24.40;49.30;;;;;;4920872;29;20454;-72
2022/07/08 12:11:15;;;;;;;1.33;0.70;;;24.40;49.50;;;;;;4920754;29;20472;-72
2022/07/08 12:13:43;;;;;;;0.80;0.60;;;24.40;49.40;;;;;;4919627;29;20472;-71
2022/07/08 12:16:10;;;;;;;1.23;0.70;;;24.70;50.40;;;;;;4920786;29;20486;-72
2022/07/08 12:18:44;;;;;;;0.70;0.63;;;24.70;49.20;;;;;;4920492;29;20944;-72
2022/07/08 12:21:21;;;;;;;0.80;0.60;;;24.80;48.70;;;;;;4920496;29;20496;-71
2022/07/08 12:23:58;;;;;;;0.70;0.50;;;24.50;49.00;;;;;;4920658;29;20444;-71
2022/07/08 12:26:24;;;;;;;0.70;0.60;;;24.20;48.10;;;;;;4920734;29;20432;-72
2022/07/08 12:28:51;;;;;;;0.70;0.60;;;24.30;48.80;;;;;;4920628;29;20507;-72
2022/07/08 12:31:35;;;;;;;0.70;0.60;;;24.10;49.50;;;;;;4920453;29;20539;-72
2022/07/08 12:34:02;;;;;;;0.70;0.60;;;24.20;50.10;;;;;;4920206;29;20861;-72
2022/07/08 12:36:31;;;;;;;1.00;0.60;;;24.60;47.70;;;;;;4920104;29;20511;-71
2022/07/08 12:38:58;;;;;;;0.80;0.50;;;24.90;47.80;;;;;;4920360;29;20456;-71
2022/07/08 12:41:25;;;;;;;0.80;0.67;;;24.90;46.80;;;;;;4920221;29;20488;-72
2022/07/08 12:43:51;;;;;;;0.70;0.60;;;25.20;47.30;;;;;;4920379;29;20453;-72
2022/07/08 12:46:18;;;;;;;1.00;0.70;;;25.30;47.10;;;;;;4920300;29;20461;-72
2022/07/08 12:48:45;;;;;;;0.73;0.60;;;25.10;46.20;;;;;;4919917;29;20945;-72
2022/07/08 12:51:11;;;;;;;0.70;0.50;;;24.90;45.60;;;;;;4919788;29;21040;-72
2022/07/08 12:53:39;;;;;;;0.70;0.60;;;24.90;47.20;;;;;;4920078;29;20500;-72
2022/07/08 12:56:06;;;;;;;0.70;0.60;;;25.00;46.40;;;;;;4920138;29;20511;-72
2022/07/08 12:58:33;;;;;;;0.70;0.50;;;25.10;47.50;;;;;;4920503;29;20569;-72
2022/07/08 13:01:00;;;;;;;0.70;0.60;;;24.90;46.40;;;;;;4919441;29;20988;-72
2022/07/08 13:03:26;;;;;;;1.00;0.80;;;24.90;49.10;;;;;;4920032;29;20788;-73
2022/07/08 13:05:53;;;;;;;0.70;0.70;;;25.10;47.50;;;;;;4919930;29;20452;-72
2022/07/08 13:08:20;;;;;;;0.87;0.70;;;25.40;46.30;;;;;;4920223;29;20511;-71
2022/07/08 13:10:48;;;;;;;0.77;0.70;;;25.20;46.70;;;;;;4919913;29;20911;-72
2022/07/08 13:13:14;;;;;;;0.80;0.60;;;25.30;47.60;;;;;;4920033;29;20508;-72
2022/07/08 13:15:41;;;;;;;0.80;0.60;;;25.50;46.20;;;;;;4919092;29;20456;-73
2022/07/08 13:18:07;;;;;;;0.90;0.60;;;25.60;45.00;;;;;;4919951;29;20453;-72
2022/07/08 13:20:34;;;;;;;0.80;0.60;;;25.50;47.70;;;;;;4920089;29;20453;-71
2022/07/08 13:23:01;;;;;;;0.80;0.70;;;25.60;46.30;;;;;;4919834;29;20539;-72
2022/07/08 13:25:27;;;;;;;0.70;0.50;;;25.70;47.10;;;;;;4919779;29;20504;-72
2022/07/08 13:27:55;;;;;;;0.70;0.50;;;25.90;45.70;;;;;;4919478;29;20864;-72
2022/07/08 13:30:22;;;;;;;0.90;0.60;;;25.70;46.70;;;;;;4919883;29;20512;-71
2022/07/08 13:32:49;;;;;;;0.80;0.60;;;25.80;46.90;;;;;;4919823;29;20879;-72
2022/07/08 13:35:15;;;;;;;0.70;0.60;;;25.60;45.30;;;;;;4919656;29;20504;-71
2022/07/08 13:37:42;;;;;;;0.70;0.70;;;25.40;44.90;;;;;;4919655;29;20504;-71
2022/07/08 13:40:10;;;;;;;0.80;0.60;;;25.30;44.90;;;;;;4919594;29;20500;-72
2022/07/08 13:42:36;;;;;;;0.60;0.50;;;25.40;46.30;;;;;;4919584;29;20496;-72
2022/07/08 13:45:05;;;;;;;0.80;0.67;;;25.60;46.50;;;;;;4919428;29;20504;-72
2022/07/08 13:47:32;;;;;;;0.70;0.60;;;25.80;46.60;;;;;;4919167;29;20460;-72
2022/07/08 13:49:58;;;;;;;0.70;0.50;;;25.70;45.50;;;;;;4919215;29;20453;-72
2022/07/08 13:52:26;;;;;;;0.80;0.60;;;25.70;46.70;;;;;;4919078;29;20539;-72
2022/07/08 13:54:53;;;;;;;0.70;0.60;;;25.70;46.00;;;;;;4919038;29;20456;-73
2022/07/08 13:57:19;;;;;;;0.70;0.57;;;25.80;46.50;;;;;;4919060;29;20449;-72
2022/07/08 13:59:46;;;;;;;0.80;0.60;;;25.80;47.70;;;;;;4919034;29;20504;-73
2022/07/08 14:02:15;;;;;;;0.70;0.60;;;25.90;45.60;;;;;;4918565;29;20496;-71
2022/07/08 14:04:42;;;;;;;0.70;0.60;;;25.90;44.60;;;;;;4918946;29;20555;-71
2022/07/08 14:07:09;;;;;;;0.70;0.60;;;26.10;45.50;;;;;;4918586;29;20975;-72
2022/07/08 14:09:36;;;;;;;1.37;0.60;;;26.00;45.00;;;;;;4918779;29;20449;-72
2022/07/08 14:12:04;;;;;;;1.40;0.63;;;26.30;45.20;;;;;;4918746;29;20532;-72
2022/07/08 14:14:31;;;;;;;0.73;0.60;;;26.30;45.50;;;;;;4918776;29;20912;-72
2022/07/08 14:16:59;;;;;;;1.10;0.67;;;26.20;44.90;;;;;;4918758;29;20456;-72
2022/07/08 14:19:27;;;;;;;1.00;0.60;;;26.40;45.90;;;;;;4918663;29;20457;-73
2022/07/08 14:21:54;;;;;;;0.70;0.50;;;26.50;44.80;;;;;;4918141;29;20840;-73
2022/07/08 14:24:21;;;;;;;0.80;0.57;;;26.70;44.80;;;;;;4918568;29;20493;-72
2022/07/08 14:26:48;;;;;;;0.70;0.60;;;26.50;44.70;;;;;;4918459;29;20459;-73
2022/07/08 14:29:14;;;;;;;0.80;0.60;;;26.70;44.80;;;;;;4918486;29;20488;-72
2022/07/08 14:31:41;;;;;;;0.70;0.60;;;26.90;44.40;;;;;;4918090;29;21069;-73
2022/07/08 14:34:07;;;;;;;0.80;0.60;;;27.00;42.80;;;;;;4918406;29;20453;-72
2022/07/08 14:36:36;;;;;;;0.70;0.60;;;27.10;43.00;;;;;;4918317;29;20448;-72
2022/07/08 14:39:03;;;;;;;0.70;0.60;;;27.10;42.70;;;;;;4918355;29;20457;-72
2022/07/08 14:41:30;;;;;;;0.77;0.70;;;26.90;43.20;;;;;;4917845;29;20906;-73
2022/07/08 14:43:56;;;;;;;0.70;0.60;;;26.70;44.30;;;;;;4917933;29;20872;-71
2022/07/08 14:46:23;;;;;;;0.80;0.60;;;26.80;44.80;;;;;;4918222;29;20938;-71
2022/07/08 14:48:50;;;;;;;0.70;0.60;;;26.90;44.60;;;;;;4918142;29;20508;-72
2022/07/08 14:51:16;;;;;;;0.77;0.70;;;27.00;45.10;;;;;;4918032;29;20480;-71
2022/07/08 14:53:44;;;;;;;0.70;0.70;;;27.00;43.90;;;;;;4918072;29;20460;-72
2022/07/08 14:56:11;;;;;;;0.70;0.60;;;26.90;43.10;;;;;;4918022;29;20527;-71
2022/07/08 14:58:38;;;;;;;0.70;0.60;;;27.10;44.00;;;;;;4917982;29;20455;-72
2022/07/08 15:01:05;;;;;;;0.90;0.60;;;27.10;43.60;;;;;;4917703;29;20492;-72
2022/07/08 15:03:32;;;;;;;0.90;0.60;;;27.20;43.60;;;;;;4917808;29;20481;-72
2022/07/08 15:05:59;;;;;;;0.70;0.50;;;27.20;43.60;;;;;;4917544;29;20940;-72
2022/07/08 15:08:28;;;;;;;0.70;0.60;;;27.10;44.00;;;;;;4917461;29;20948;-72
2022/07/08 15:10:56;;;;;;;0.80;0.60;;;27.10;43.60;;;;;;4917656;29;20485;-72
2022/07/08 15:13:26;;;;;;;0.73;0.60;;;27.00;43.80;;;;;;4917465;29;20449;-72
2022/07/08 15:15:53;;;;;;;0.70;0.70;;;27.10;44.40;;;;;;4919257;29;20895;-74
2022/07/08 15:18:19;;;;;;;0.97;0.70;;;27.20;42.50;;;;;;4917701;29;20449;-71
2022/07/08 15:20:46;;;;;;;1.00;0.70;;;27.40;42.30;;;;;;4917804;29;20473;-72
2022/07/08 15:23:13;;;;;;;0.60;0.50;;;27.50;43.00;;;;;;4917461;29;20552;-72
2022/07/08 15:25:39;;;;;;;0.80;0.63;;;27.40;42.60;;;;;;4917586;29;20448;-73
2022/07/08 15:28:07;;;;;;;0.80;0.70;;;27.20;42.10;;;;;;4917556;29;20449;-73
2022/07/08 15:30:34;;;;;;;0.80;0.60;;;27.30;42.50;;;;;;4917371;29;20452;-73
2022/07/08 15:33:01;;;;;;;0.60;0.50;;;26.90;43.30;;;;;;4917419;29;20455;-74
2022/07/08 15:35:28;;;;;;;0.70;0.70;;;26.50;43.90;;;;;;4917403;29;20448;-73
2022/07/08 15:37:55;;;;;;;0.70;0.50;;;26.50;44.00;;;;;;4916809;29;20961;-72
2022/07/08 15:40:22;;;;;;;0.70;0.50;;;26.70;44.20;;;;;;4917040;29;20964;-73
2022/07/08 15:42:49;;;;;;;0.70;0.60;;;26.90;43.20;;;;;;4917165;29;20540;-72
2022/07/08 15:45:17;;;;;;;0.80;0.67;;;26.80;42.50;;;;;;4917304;29;20508;-72
2022/07/08 15:47:43;;;;;;;0.90;0.60;;;26.90;42.50;;;;;;4916974;29;20873;-72
2022/07/08 15:50:10;;;;;;;0.70;0.60;;;27.10;41.70;;;;;;4917263;29;20481;-73
2022/07/08 15:52:37;;;;;;;0.73;0.60;;;27.20;42.20;;;;;;4917138;29;20476;-72